Time,TemperatureF,DewpointF,PressureIn,WindDirection,WindDirectionDegrees,WindSpeedMPH,WindSpeedGustMPH,Humidity,HourlyPrecipIn,Conditions,Clouds,dailyrainin,SoftwareType,DateUTC
2013-06-03 00:00:00,74.3,69.3,29.87,SW,224,0.0,238.7,84,4.70,,,0.00,VWS V14.01,2013-06-03 04:00:00,
2013-06-03 00:01:00,74.7,67.7,29.85,SSW,198,0.0,238.7,79,4.70,,,0.00,VWS V14.01,2013-06-03 04:01:00,
2013-06-03 00:02:00,74.7,67.7,29.85,SSW,198,0.0,238.7,79,4.70,,,0.00,VWS V14.01,2013-06-03 04:02:00,
2013-06-03 00:03:00,74.7,67.7,29.85,SSW,198,0.0,238.7,79,4.70,,,0.00,VWS V14.01,2013-06-03 04:03:00,
2013-06-03 00:04:00,74.0,69.8,29.86,SW,224,0.0,238.7,87,4.70,,,0.00,VWS V14.01,2013-06-03 04:04:00,
2013-06-03 00:05:00,73.9,69.7,29.86,SW,224,0.0,238.7,87,4.70,,,0.00,VWS V14.01,2013-06-03 04:05:00,
2013-06-03 00:06:00,73.9,69.7,29.86,SW,224,0.0,238.7,87,4.70,,,0.00,VWS V14.01,2013-06-03 04:06:00,
2013-06-03 00:08:00,74.7,67.7,29.85,SSW,198,0.0,238.7,79,4.70,,,0.00,VWS V14.01,2013-06-03 04:08:00,
2013-06-03 00:09:00,73.8,69.5,29.86,SW,224,0.0,238.7,86,4.70,,,0.00,VWS V14.01,2013-06-03 04:09:00,
2013-06-03 00:10:00,73.8,69.6,29.86,SW,224,0.0,238.7,87,4.70,,,0.00,VWS V14.01,2013-06-03 04:10:00,
2013-06-03 00:11:00,73.8,69.5,29.86,SW,224,0.0,238.7,86,4.70,,,0.00,VWS V14.01,2013-06-03 04:11:00,
2013-06-03 00:12:00,73.8,69.6,29.86,SW,224,0.0,238.7,87,4.70,,,0.00,VWS V14.01,2013-06-03 04:12:00,
2013-06-03 00:13:00,74.7,67.7,29.85,SSW,198,0.0,238.7,79,4.70,,,0.00,VWS V14.01,2013-06-03 04:13:00,
2013-06-03 00:14:00,73.7,69.4,29.86,SW,224,0.0,238.7,86,4.70,,,0.00,VWS V14.01,2013-06-03 04:14:00,
2013-06-03 00:15:00,74.7,67.7,29.85,SSW,198,0.0,238.7,79,4.70,,,0.00,VWS V14.01,2013-06-03 04:15:00,
2013-06-03 00:16:00,73.7,69.5,29.86,SSW,212,2.5,238.7,87,4.70,,,0.00,VWS V14.01,2013-06-03 04:16:00,
2013-06-03 00:17:00,73.7,69.5,29.86,SSW,212,0.0,238.7,87,4.70,,,0.00,VWS V14.01,2013-06-03 04:17:00,
2013-06-03 00:18:00,73.7,69.5,29.86,West,266,3.4,238.7,87,4.70,,,0.00,VWS V14.01,2013-06-03 04:18:00,
2013-06-03 00:19:00,73.6,69.4,29.86,WSW,245,0.0,238.7,87,4.70,,,0.00,VWS V14.01,2013-06-03 04:19:00,
2013-06-03 00:20:00,74.7,67.9,29.85,SSW,198,0.0,238.7,79,4.70,,,0.00,VWS V14.01,2013-06-03 04:20:00,
2013-06-03 00:21:00,73.6,69.4,29.86,WSW,245,0.0,238.7,87,4.70,,,0.00,VWS V14.01,2013-06-03 04:21:00,
2013-06-03 00:22:00,73.6,69.4,29.85,WSW,245,0.0,238.7,87,4.70,,,0.00,VWS V14.01,2013-06-03 04:22:00,
2013-06-03 00:23:00,73.5,69.3,29.86,NNW,333,0.0,238.7,87,4.70,,,0.00,VWS V14.01,2013-06-03 04:23:00,
2013-06-03 00:24:00,73.5,69.4,29.85,NNW,333,0.0,238.7,87,4.70,,,0.00,VWS V14.01,2013-06-03 04:24:00,
2013-06-03 00:25:00,74.7,67.8,29.85,SSW,198,0.0,238.7,79,4.70,,,0.00,VWS V14.01,2013-06-03 04:25:00,
2013-06-03 00:26:00,73.4,69.3,29.85,NNW,333,0.0,238.7,87,4.70,,,0.00,VWS V14.01,2013-06-03 04:26:00,
2013-06-03 00:27:00,73.4,69.3,29.85,NNW,333,0.0,238.7,87,4.70,,,0.00,VWS V14.01,2013-06-03 04:27:00,
2013-06-03 00:28:00,73.3,69.4,29.85,NNW,333,0.0,238.7,88,4.70,,,0.00,VWS V14.01,2013-06-03 04:28:00,
2013-06-03 00:29:00,73.3,69.4,29.85,NNW,333,0.0,238.7,88,4.70,,,0.00,VWS V14.01,2013-06-03 04:29:00,
2013-06-03 00:30:00,73.3,69.3,29.85,NNW,333,0.0,238.7,87,4.70,,,0.00,VWS V14.01,2013-06-03 04:30:00,
2013-06-03 00:31:00,74.7,67.8,29.86,West,260,0.0,238.7,79,4.70,,,0.00,VWS V14.01,2013-06-03 04:31:00,
2013-06-03 00:33:00,73.2,69.2,29.85,NNW,333,0.0,238.7,87,4.70,,,0.00,VWS V14.01,2013-06-03 04:33:00,
2013-06-03 00:34:00,73.2,69.2,29.85,NNW,333,0.0,238.7,87,4.70,,,0.00,VWS V14.01,2013-06-03 04:34:00,
2013-06-03 00:35:00,73.2,69.2,29.85,NNW,333,0.0,238.7,87,4.70,,,0.00,VWS V14.01,2013-06-03 04:35:00,
2013-06-03 00:36:00,74.7,68.1,29.86,SW,219,0.0,238.7,80,4.70,,,0.00,VWS V14.01,2013-06-03 04:36:00,
2013-06-03 00:37:00,73.1,69.0,29.85,NNW,333,0.0,238.7,87,4.70,,,0.00,VWS V14.01,2013-06-03 04:37:00,
2013-06-03 00:38:00,73.2,69.1,29.85,NNW,333,0.0,238.7,87,4.70,,,0.00,VWS V14.01,2013-06-03 04:38:00,
2013-06-03 00:39:00,73.2,69.1,29.85,NNW,333,0.0,238.7,87,4.70,,,0.00,VWS V14.01,2013-06-03 04:39:00,
2013-06-03 00:40:00,73.2,69.1,29.85,NNW,333,0.0,238.7,87,4.70,,,0.00,VWS V14.01,2013-06-03 04:40:00,
2013-06-03 00:41:00,73.2,69.0,29.85,NNW,333,0.0,238.7,87,4.70,,,0.00,VWS V14.01,2013-06-03 04:41:00,
2013-06-03 00:42:00,74.7,68.5,29.86,SW,219,0.0,238.7,81,4.70,,,0.00,VWS V14.01,2013-06-03 04:42:00,
2013-06-03 00:43:00,73.2,68.9,29.85,NNW,333,0.0,238.7,86,4.70,,,0.00,VWS V14.01,2013-06-03 04:43:00,
2013-06-03 00:44:00,73.2,68.9,29.85,NNW,333,0.0,238.7,86,4.70,,,0.00,VWS V14.01,2013-06-03 04:44:00,
2013-06-03 00:45:00,73.2,68.9,29.85,NNW,333,0.0,238.7,86,4.70,,,0.00,VWS V14.01,2013-06-03 04:45:00,
2013-06-03 00:46:00,73.2,68.8,29.85,NNW,333,0.0,238.7,86,4.70,,,0.00,VWS V14.01,2013-06-03 04:46:00,
2013-06-03 00:47:00,74.5,68.5,29.86,West,274,0.0,238.7,82,4.70,,,0.00,VWS V14.01,2013-06-03 04:47:00,
2013-06-03 00:48:00,73.2,68.8,29.85,NNW,333,0.0,238.7,86,4.70,,,0.00,VWS V14.01,2013-06-03 04:48:00,
2013-06-03 00:49:00,73.2,68.7,29.85,NNW,333,0.0,238.7,86,4.70,,,0.00,VWS V14.01,2013-06-03 04:49:00,
2013-06-03 00:50:00,73.2,68.7,29.85,NNW,333,0.0,238.7,86,4.70,,,0.00,VWS V14.01,2013-06-03 04:50:00,
2013-06-03 00:51:00,73.2,68.7,29.85,NNW,333,0.0,238.7,86,4.70,,,0.00,VWS V14.01,2013-06-03 04:51:00,
2013-06-03 00:52:00,74.4,69.2,29.87,NNW,345,0.0,238.7,84,4.70,,,0.00,VWS V14.01,2013-06-03 04:52:00,
2013-06-03 00:53:00,73.2,68.7,29.85,NNW,333,0.0,238.7,86,4.70,,,0.00,VWS V14.01,2013-06-03 04:53:00,
2013-06-03 00:54:00,73.2,68.6,29.85,NNW,333,0.0,238.7,86,4.70,,,0.00,VWS V14.01,2013-06-03 04:54:00,
2013-06-03 00:55:00,73.2,68.6,29.84,NNW,333,0.0,238.7,86,4.70,,,0.00,VWS V14.01,2013-06-03 04:55:00,
2013-06-03 00:56:00,73.2,68.7,29.84,NNW,333,0.0,238.7,86,4.70,,,0.00,VWS V14.01,2013-06-03 04:56:00,
2013-06-03 00:58:00,73.2,68.6,29.84,NNW,333,0.0,238.7,86,4.70,,,0.00,VWS V14.01,2013-06-03 04:58:00,
2013-06-03 00:59:00,73.2,68.6,29.84,NNW,333,0.0,238.7,86,4.70,,,0.00,VWS V14.01,2013-06-03 04:59:00,
2013-06-03 01:00:00,73.2,68.7,29.84,NNW,333,0.0,238.7,86,4.70,,,0.00,VWS V14.01,2013-06-03 05:00:00,
2013-06-03 01:01:00,73.2,68.7,29.84,NNW,333,0.0,238.7,86,4.70,,,0.00,VWS V14.01,2013-06-03 05:01:00,
2013-06-03 01:02:00,73.2,68.6,29.84,NNW,333,0.0,238.7,86,4.70,,,0.00,VWS V14.01,2013-06-03 05:02:00,
2013-06-03 01:03:00,73.2,68.7,29.84,NNW,333,0.0,238.7,86,4.70,,,0.00,VWS V14.01,2013-06-03 05:03:00,
2013-06-03 01:04:00,73.2,68.6,29.84,NNW,333,0.0,238.7,86,4.70,,,0.00,VWS V14.01,2013-06-03 05:04:00,
2013-06-03 01:05:00,73.2,68.6,29.84,NNW,333,0.0,238.7,86,4.70,,,0.00,VWS V14.01,2013-06-03 05:05:00,
2013-06-03 01:06:00,73.2,68.6,29.84,NNW,333,0.0,238.7,86,4.70,,,0.00,VWS V14.01,2013-06-03 05:06:00,
2013-06-03 01:07:00,73.2,68.6,29.84,NNW,333,0.0,238.7,86,4.70,,,0.00,VWS V14.01,2013-06-03 05:07:00,
2013-06-03 01:08:00,73.2,68.6,29.84,NNW,333,0.0,238.7,86,4.70,,,0.00,VWS V14.01,2013-06-03 05:08:00,
2013-06-03 01:09:00,73.1,68.5,29.84,NNW,333,0.0,238.7,86,4.70,,,0.00,VWS V14.01,2013-06-03 05:09:00,
2013-06-03 01:10:00,73.1,68.6,29.83,NNW,333,0.0,238.7,86,4.70,,,0.00,VWS V14.01,2013-06-03 05:10:00,
2013-06-03 01:11:00,73.1,68.6,29.83,NNW,333,0.0,238.7,86,4.70,,,0.00,VWS V14.01,2013-06-03 05:11:00,
2013-06-03 01:12:00,73.0,68.5,29.83,NNW,333,0.0,238.7,86,4.70,,,0.00,VWS V14.01,2013-06-03 05:12:00,
2013-06-03 01:13:00,73.0,68.6,29.83,NNW,333,0.0,238.7,86,4.70,,,0.00,VWS V14.01,2013-06-03 05:13:00,
2013-06-03 01:14:00,72.9,68.5,29.83,NNW,333,0.0,238.7,86,4.70,,,0.00,VWS V14.01,2013-06-03 05:14:00,
2013-06-03 01:15:00,72.9,68.6,29.83,NNW,333,0.0,238.7,86,4.70,,,0.00,VWS V14.01,2013-06-03 05:15:00,
2013-06-03 01:16:00,72.9,68.6,29.84,NNW,333,0.0,238.7,86,4.70,,,0.00,VWS V14.01,2013-06-03 05:16:00,
2013-06-03 01:17:00,72.8,68.6,29.83,NNW,333,0.0,238.7,87,4.70,,,0.00,VWS V14.01,2013-06-03 05:17:00,
2013-06-03 01:18:00,72.8,68.6,29.83,NNW,333,0.0,238.7,87,4.70,,,0.00,VWS V14.01,2013-06-03 05:18:00,
2013-06-03 01:19:00,72.8,68.6,29.84,NNW,333,0.0,238.7,87,4.70,,,0.00,VWS V14.01,2013-06-03 05:19:00,
2013-06-03 01:21:00,72.7,68.6,29.83,NNW,333,0.0,238.7,87,4.70,,,0.00,VWS V14.01,2013-06-03 05:21:00,
2013-06-03 01:22:00,72.7,68.6,29.83,NNW,333,0.0,238.7,87,4.70,,,0.00,VWS V14.01,2013-06-03 05:22:00,
2013-06-03 01:24:00,72.7,68.6,29.83,NNW,333,0.0,238.7,87,4.70,,,0.00,VWS V14.01,2013-06-03 05:24:00,
2013-06-03 01:25:00,72.7,68.7,29.83,NNW,333,0.0,238.7,87,4.70,,,0.00,VWS V14.01,2013-06-03 05:25:00,
2013-06-03 01:26:00,72.6,68.6,29.83,NNW,333,0.0,238.7,87,4.70,,,0.00,VWS V14.01,2013-06-03 05:26:00,
2013-06-03 01:27:00,72.6,68.6,29.83,NNW,333,0.0,238.7,87,4.70,,,0.00,VWS V14.01,2013-06-03 05:27:00,
2013-06-03 01:28:00,72.6,68.6,29.83,NNW,333,0.0,238.7,87,4.70,,,0.00,VWS V14.01,2013-06-03 05:28:00,
2013-06-03 01:29:00,72.5,68.6,29.83,NNW,333,0.0,238.7,87,4.70,,,0.00,VWS V14.01,2013-06-03 05:29:00,
2013-06-03 01:30:00,72.5,68.6,29.83,NNW,333,0.0,238.7,87,4.70,,,0.00,VWS V14.01,2013-06-03 05:30:00,
2013-06-03 01:31:00,72.5,68.6,29.84,NNW,333,0.0,238.7,88,4.70,,,0.00,VWS V14.01,2013-06-03 05:31:00,
2013-06-03 01:33:00,72.4,68.6,29.84,NNW,333,0.0,238.7,88,4.70,,,0.00,VWS V14.01,2013-06-03 05:33:00,
2013-06-03 01:35:00,72.4,68.5,29.84,NNW,333,0.0,238.7,88,4.70,,,0.00,VWS V14.01,2013-06-03 05:35:00,
2013-06-03 01:36:00,72.4,68.5,29.84,SW,233,0.0,238.7,88,4.70,,,0.00,VWS V14.01,2013-06-03 05:36:00,
2013-06-03 01:37:00,72.4,68.6,29.84,SW,233,0.0,238.7,88,4.70,,,0.00,VWS V14.01,2013-06-03 05:37:00,
2013-06-03 01:38:00,72.4,68.6,29.84,SW,233,0.0,238.7,88,4.70,,,0.00,VWS V14.01,2013-06-03 05:38:00,
2013-06-03 01:39:00,72.4,68.6,29.84,SW,233,0.0,238.7,88,4.70,,,0.00,VWS V14.01,2013-06-03 05:39:00,
2013-06-03 01:40:00,72.3,68.6,29.84,SSE,163,4.5,238.7,88,4.70,,,0.00,VWS V14.01,2013-06-03 05:40:00,
2013-06-03 01:43:00,72.3,68.6,29.84,SSE,163,0.0,238.7,88,4.70,,,0.00,VWS V14.01,2013-06-03 05:43:00,
2013-06-03 01:45:00,72.3,68.8,29.84,SSE,163,0.0,238.7,89,4.70,,,0.00,VWS V14.01,2013-06-03 05:45:00,
2013-06-03 01:46:00,72.2,68.6,29.84,South,190,0.0,238.7,88,4.70,,,0.00,VWS V14.01,2013-06-03 05:46:00,
2013-06-03 01:49:00,72.1,68.6,29.84,South,190,0.0,238.7,89,4.70,,,0.00,VWS V14.01,2013-06-03 05:49:00,
2013-06-03 01:52:00,71.9,68.4,29.84,South,190,0.0,238.7,89,4.70,,,0.00,VWS V14.01,2013-06-03 05:52:00,
2013-06-03 02:02:00,71.7,68.3,29.84,West,276,0.0,238.7,89,4.70,,,0.00,VWS V14.01,2013-06-03 06:02:00,
2013-06-03 02:18:00,72.8,68.7,29.83,NNW,333,0.0,238.7,87,4.70,,,0.00,VWS V14.01,2013-06-03 06:18:00,
2013-06-03 02:30:00,72.5,68.6,29.84,NNW,333,0.0,238.7,88,4.70,,,0.00,VWS V14.01,2013-06-03 06:30:00,
2013-06-03 02:39:00,72.3,68.6,29.84,SSE,163,0.0,238.7,88,4.70,,,0.00,VWS V14.01,2013-06-03 06:39:00,
2013-06-03 02:44:00,72.2,68.7,29.84,South,190,0.0,238.7,89,4.70,,,0.00,VWS V14.01,2013-06-03 06:44:00,
2013-06-03 02:51:00,71.9,68.4,29.84,WNW,287,0.0,238.7,89,4.70,,,0.00,VWS V14.01,2013-06-03 06:51:00,
2013-06-03 02:56:00,71.8,68.4,29.84,West,276,0.0,238.7,89,4.70,,,0.00,VWS V14.01,2013-06-03 06:56:00,
2013-06-03 03:01:00,71.7,68.4,29.84,West,276,0.0,238.7,89,4.70,,,0.00,VWS V14.01,2013-06-03 07:01:00,
2013-06-03 03:06:00,71.6,68.4,29.84,West,276,0.0,238.7,90,4.70,,,0.00,VWS V14.01,2013-06-03 07:06:00,
2013-06-03 03:11:00,71.6,68.4,29.84,West,276,0.0,238.7,90,4.70,,,0.00,VWS V14.01,2013-06-03 07:11:00,
2013-06-03 03:16:00,71.6,68.4,29.84,West,276,0.0,238.7,90,4.70,,,0.00,VWS V14.01,2013-06-03 07:16:00,
2013-06-03 03:22:00,71.6,68.6,29.84,West,276,0.0,238.7,90,4.73,,,0.03,VWS V14.01,2013-06-03 07:22:00,
2013-06-03 03:27:00,71.4,69.0,29.84,West,277,0.0,238.7,92,4.79,,,0.09,VWS V14.01,2013-06-03 07:27:00,
2013-06-03 03:32:00,71.2,68.9,29.84,West,277,0.0,238.7,92,4.81,,,0.11,VWS V14.01,2013-06-03 07:32:00,
2013-06-03 03:37:00,71.1,68.9,29.84,SSW,205,0.0,238.7,93,4.81,,,0.11,VWS V14.01,2013-06-03 07:37:00,
2013-06-03 03:43:00,71.1,69.0,29.84,SSW,205,0.0,238.7,93,4.81,,,0.11,VWS V14.01,2013-06-03 07:43:00,
2013-06-03 03:48:00,71.0,68.9,29.84,SSW,205,0.0,238.7,93,4.81,,,0.11,VWS V14.01,2013-06-03 07:48:00,
2013-06-03 03:53:00,71.1,69.0,29.84,SSW,205,0.0,238.7,93,4.81,,,0.11,VWS V14.01,2013-06-03 07:53:00,
2013-06-03 03:59:00,71.1,69.1,29.84,SSW,205,0.0,238.7,93,4.81,,,0.11,VWS V14.01,2013-06-03 07:59:00,
2013-06-03 04:04:00,71.1,69.1,29.85,SSW,205,0.0,238.7,93,4.81,,,0.11,VWS V14.01,2013-06-03 08:04:00,
2013-06-03 04:09:00,71.1,69.3,29.85,SSW,205,0.0,238.7,94,4.81,,,0.11,VWS V14.01,2013-06-03 08:09:00,
2013-06-03 04:15:00,70.8,69.0,29.85,WNW,294,0.0,238.7,94,4.82,,,0.12,VWS V14.01,2013-06-03 08:15:00,
2013-06-03 04:20:00,70.9,69.0,29.85,WNW,294,0.0,238.7,94,4.82,,,0.12,VWS V14.01,2013-06-03 08:20:00,
2013-06-03 04:25:00,71.0,69.1,29.85,WNW,294,0.0,238.7,94,4.82,,,0.12,VWS V14.01,2013-06-03 08:25:00,
2013-06-03 04:30:00,71.0,69.0,29.85,WNW,294,0.0,238.7,93,4.82,,,0.12,VWS V14.01,2013-06-03 08:30:00,
2013-06-03 04:35:00,71.0,69.0,29.85,WNW,294,0.0,238.7,93,4.83,,,0.13,VWS V14.01,2013-06-03 08:35:00,
2013-06-03 04:41:00,70.9,68.9,29.85,WNW,294,0.0,238.7,93,4.85,,,0.15,VWS V14.01,2013-06-03 08:41:00,
2013-06-03 04:46:00,70.9,68.8,29.85,WNW,294,0.0,238.7,93,4.86,,,0.16,VWS V14.01,2013-06-03 08:46:00,
2013-06-03 04:51:00,71.0,68.9,29.85,WNW,294,0.0,238.7,93,4.86,,,0.16,VWS V14.01,2013-06-03 08:51:00,
2013-06-03 04:56:00,71.0,68.8,29.85,WNW,294,0.0,238.7,93,4.86,,,0.16,VWS V14.01,2013-06-03 08:56:00,
2013-06-03 05:02:00,71.1,68.8,29.85,WNW,294,0.0,238.7,93,4.86,,,0.16,VWS V14.01,2013-06-03 09:02:00,
2013-06-03 05:07:00,71.1,68.8,29.85,WNW,294,0.0,238.7,92,4.86,,,0.16,VWS V14.01,2013-06-03 09:07:00,
2013-06-03 05:12:00,71.1,68.8,29.85,WNW,294,0.0,238.7,92,4.86,,,0.16,VWS V14.01,2013-06-03 09:12:00,
2013-06-03 05:17:00,71.0,68.7,29.85,WNW,294,0.0,238.7,92,4.86,,,0.16,VWS V14.01,2013-06-03 09:17:00,
2013-06-03 05:22:00,71.0,68.6,29.85,WNW,294,0.0,238.7,92,4.86,,,0.16,VWS V14.01,2013-06-03 09:22:00,
2013-06-03 05:28:00,70.9,68.5,29.85,WNW,294,0.0,238.7,92,4.87,,,0.17,VWS V14.01,2013-06-03 09:28:00,
2013-06-03 05:33:00,70.9,68.5,29.85,WNW,294,0.0,238.7,92,4.88,,,0.18,VWS V14.01,2013-06-03 09:33:00,
2013-06-03 05:38:00,70.9,68.6,29.85,WNW,294,0.0,238.7,92,4.88,,,0.18,VWS V14.01,2013-06-03 09:38:00,
2013-06-03 05:43:00,70.9,68.6,29.85,WNW,294,0.0,238.7,92,4.88,,,0.18,VWS V14.01,2013-06-03 09:43:00,
2013-06-03 05:48:00,70.7,68.3,29.86,WNW,294,0.0,238.7,92,4.89,,,0.19,VWS V14.01,2013-06-03 09:48:00,
2013-06-03 05:54:00,70.4,67.9,29.86,WNW,294,0.0,238.7,92,4.89,,,0.19,VWS V14.01,2013-06-03 09:54:00,
2013-06-03 05:59:00,70.0,67.5,29.86,WNW,294,0.0,238.7,92,4.89,,,0.19,VWS V14.01,2013-06-03 09:59:00,
2013-06-03 06:04:00,69.8,67.3,29.86,WNW,294,0.0,238.7,92,4.91,,,0.21,VWS V14.01,2013-06-03 10:04:00,
2013-06-03 06:09:00,69.5,66.9,29.86,WNW,294,0.0,238.7,91,4.91,,,0.21,VWS V14.01,2013-06-03 10:09:00,
2013-06-03 06:14:00,69.0,66.7,29.86,WNW,294,0.0,238.7,92,4.91,,,0.21,VWS V14.01,2013-06-03 10:14:00,
2013-06-03 06:20:00,68.7,66.5,29.86,NW,308,0.0,238.7,93,4.91,,,0.21,VWS V14.01,2013-06-03 10:20:00,
2013-06-03 06:25:00,68.4,66.2,29.86,NW,308,0.0,238.7,93,4.91,,,0.21,VWS V14.01,2013-06-03 10:25:00,
2013-06-03 06:30:00,68.3,66.1,29.86,NW,308,0.0,238.7,93,4.91,,,0.21,VWS V14.01,2013-06-03 10:30:00,
2013-06-03 06:35:00,68.0,66.0,29.86,NW,308,0.0,238.7,93,4.91,,,0.21,VWS V14.01,2013-06-03 10:35:00,
2013-06-03 06:41:00,67.8,65.9,29.86,NW,308,0.0,238.7,94,4.91,,,0.21,VWS V14.01,2013-06-03 10:41:00,
2013-06-03 06:46:00,67.4,65.7,29.86,NW,311,0.0,238.7,94,4.91,,,0.21,VWS V14.01,2013-06-03 10:46:00,
2013-06-03 06:51:00,67.3,65.5,29.87,NW,311,0.0,238.7,94,4.91,,,0.21,VWS V14.01,2013-06-03 10:51:00,
2013-06-03 06:56:00,67.2,65.5,29.86,NW,311,0.0,238.7,94,4.92,,,0.22,VWS V14.01,2013-06-03 10:56:00,
2013-06-03 07:01:00,67.1,65.5,29.86,NW,311,0.0,238.7,94,4.94,,,0.24,VWS V14.01,2013-06-03 11:01:00,
2013-06-03 07:07:00,67.1,65.5,29.86,NW,311,0.0,238.7,95,4.96,,,0.26,VWS V14.01,2013-06-03 11:07:00,
2013-06-03 07:12:00,66.8,65.4,29.87,NW,311,0.0,238.7,95,4.97,,,0.27,VWS V14.01,2013-06-03 11:12:00,
2013-06-03 07:17:00,66.5,64.9,29.87,North,10,0.0,238.7,95,5.04,,,0.34,VWS V14.01,2013-06-03 11:17:00,
2013-06-03 07:22:00,66.3,64.9,29.88,North,10,0.0,238.7,95,5.23,,,0.53,VWS V14.01,2013-06-03 11:22:00,
2013-06-03 07:28:00,66.2,64.8,29.87,North,10,0.0,238.7,95,5.40,,,0.70,VWS V14.01,2013-06-03 11:28:00,
2013-06-03 07:33:00,65.9,64.7,29.87,North,10,0.0,238.7,96,5.45,,,0.75,VWS V14.01,2013-06-03 11:33:00,
2013-06-03 07:38:00,65.9,64.7,29.87,North,10,0.0,238.7,96,5.46,,,0.76,VWS V14.01,2013-06-03 11:38:00,
2013-06-03 07:43:00,66.0,64.8,29.87,North,10,0.0,238.7,96,5.48,,,0.78,VWS V14.01,2013-06-03 11:43:00,
2013-06-03 07:48:00,66.0,64.8,29.88,North,10,0.0,238.7,96,5.50,,,0.80,VWS V14.01,2013-06-03 11:48:00,
2013-06-03 07:54:00,66.2,64.9,29.88,NW,314,0.0,238.7,96,5.52,,,0.82,VWS V14.01,2013-06-03 11:54:00,
2013-06-03 07:59:00,66.0,64.7,29.88,NW,314,0.0,238.7,95,5.54,,,0.84,VWS V14.01,2013-06-03 11:59:00,
2013-06-03 08:04:00,65.9,64.5,29.89,NW,314,0.0,238.7,95,5.55,,,0.85,VWS V14.01,2013-06-03 12:04:00,
2013-06-03 08:09:00,65.9,64.6,29.88,NW,314,0.0,238.7,95,5.56,,,0.86,VWS V14.01,2013-06-03 12:09:00,
2013-06-03 08:14:00,65.9,64.7,29.88,NW,314,0.0,238.7,96,5.58,,,0.88,VWS V14.01,2013-06-03 12:14:00,
2013-06-03 08:20:00,65.8,64.5,29.88,NW,314,0.0,238.7,96,5.60,,,0.90,VWS V14.01,2013-06-03 12:20:00,
2013-06-03 08:25:00,65.8,64.5,29.88,NW,314,0.0,238.7,96,5.62,,,0.92,VWS V14.01,2013-06-03 12:25:00,
2013-06-03 08:31:00,65.7,64.4,29.88,NW,314,0.0,238.7,96,5.63,,,0.94,VWS V14.01,2013-06-03 12:31:00,
2013-06-03 08:36:00,65.8,64.5,29.88,NW,314,0.0,238.7,96,5.64,,,0.94,VWS V14.01,2013-06-03 12:36:00,
2013-06-03 08:42:00,66.1,64.8,29.87,NW,314,0.0,238.7,96,5.64,,,0.94,VWS V14.01,2013-06-03 12:42:00,
2013-06-03 08:47:00,66.5,65.2,29.87,NW,314,0.0,238.7,96,5.64,,,0.94,VWS V14.01,2013-06-03 12:47:00,
2013-06-03 08:53:00,66.9,65.5,29.87,NW,314,0.0,238.7,95,5.64,,,0.94,VWS V14.01,2013-06-03 12:53:00,
2013-06-03 08:58:00,67.2,65.7,29.87,NW,314,0.0,238.7,95,5.64,,,0.94,VWS V14.01,2013-06-03 12:58:00,
2013-06-03 09:04:00,67.6,66.2,29.88,NW,314,0.0,238.7,95,5.64,,,0.94,VWS V14.01,2013-06-03 13:04:00,
2013-06-03 09:10:00,67.8,65.9,29.89,NW,314,0.0,238.7,94,5.64,,,0.94,VWS V14.01,2013-06-03 13:10:00,
2013-06-03 09:15:00,68.1,66.5,29.88,NW,314,0.0,238.7,95,5.64,,,0.94,VWS V14.01,2013-06-03 13:15:00,
2013-06-03 09:21:00,68.4,66.4,29.88,NW,314,0.0,238.7,93,5.64,,,0.94,VWS V14.01,2013-06-03 13:21:00,
2013-06-03 09:26:00,68.4,66.3,29.88,NW,314,0.0,238.7,93,5.64,,,0.94,VWS V14.01,2013-06-03 13:26:00,
2013-06-03 09:31:00,68.8,66.6,29.89,NW,314,0.0,238.7,93,5.64,,,0.94,VWS V14.01,2013-06-03 13:31:00,
2013-06-03 09:37:00,69.2,67.1,29.89,NNE,31,0.0,238.7,93,5.64,,,0.94,VWS V14.01,2013-06-03 13:37:00,
2013-06-03 09:42:00,69.7,67.4,29.89,NNE,31,0.0,238.7,92,5.64,,,0.94,VWS V14.01,2013-06-03 13:42:00,
2013-06-03 09:49:00,70.3,68.2,29.89,NNE,31,0.0,238.7,93,5.64,,,0.94,VWS V14.01,2013-06-03 13:49:00,
2013-06-03 09:54:00,70.7,68.2,29.89,NNE,31,0.0,238.7,92,5.64,,,0.94,VWS V14.01,2013-06-03 13:54:00,
2013-06-03 09:59:00,71.1,68.5,29.89,NNE,31,0.0,238.7,92,5.64,,,0.94,VWS V14.01,2013-06-03 13:59:00,
2013-06-03 10:04:00,71.4,68.7,29.89,NNE,31,0.0,238.7,91,5.64,,,0.94,VWS V14.01,2013-06-03 14:04:00,
2013-06-03 10:10:00,71.7,68.8,29.89,NNE,31,0.0,238.7,91,5.64,,,0.94,VWS V14.01,2013-06-03 14:10:00,
2013-06-03 10:16:00,72.1,69.1,29.89,NNE,31,0.0,238.7,90,5.64,,,0.94,VWS V14.01,2013-06-03 14:16:00,
2013-06-03 10:22:00,72.3,69.0,29.89,NNE,31,0.0,238.7,89,5.64,,,0.94,VWS V14.01,2013-06-03 14:22:00,
2013-06-03 10:27:00,72.4,68.8,29.89,NNE,31,0.0,238.7,88,5.64,,,0.94,VWS V14.01,2013-06-03 14:27:00,
2013-06-03 10:32:00,72.6,69.6,29.89,NNE,31,0.0,238.7,90,5.64,,,0.94,VWS V14.01,2013-06-03 14:32:00,
2013-06-03 10:38:00,72.9,69.8,29.89,NNE,31,0.0,238.7,90,5.64,,,0.94,VWS V14.01,2013-06-03 14:38:00,
2013-06-03 10:44:00,72.8,68.3,29.89,NNE,31,0.0,238.7,86,5.64,,,0.94,VWS V14.01,2013-06-03 14:44:00,
2013-06-03 10:49:00,72.6,68.0,29.89,NNE,31,0.0,238.7,86,5.64,,,0.94,VWS V14.01,2013-06-03 14:49:00,
2013-06-03 10:55:00,71.9,66.5,29.89,NNE,31,0.0,238.7,83,5.64,,,0.94,VWS V14.01,2013-06-03 14:55:00,
2013-06-03 11:00:00,72.4,67.0,29.89,NNE,31,0.0,238.7,83,5.64,,,0.94,VWS V14.01,2013-06-03 15:00:00,
2013-06-03 11:06:00,73.0,67.5,29.89,NNE,31,0.0,238.7,83,5.64,,,0.94,VWS V14.01,2013-06-03 15:06:00,
2013-06-03 11:11:00,73.0,66.3,29.89,North,359,0.0,238.7,80,5.64,,,0.94,VWS V14.01,2013-06-03 15:11:00,
2013-06-03 11:17:00,73.6,66.6,29.89,North,359,0.0,238.7,79,5.64,,,0.94,VWS V14.01,2013-06-03 15:17:00,
2013-06-03 11:23:00,74.3,66.7,29.89,North,359,0.0,238.7,77,5.64,,,0.94,VWS V14.01,2013-06-03 15:23:00,
2013-06-03 11:28:00,74.4,66.3,29.89,NW,314,3.0,238.7,76,5.64,,,0.94,VWS V14.01,2013-06-03 15:28:00,
2013-06-03 11:34:00,74.4,66.0,29.89,West,271,0.0,238.7,75,5.64,,,0.94,VWS V14.01,2013-06-03 15:34:00,
2013-06-03 11:40:00,74.8,65.9,29.88,West,271,0.0,238.7,74,5.64,,,0.94,VWS V14.01,2013-06-03 15:40:00,
2013-06-03 11:46:00,74.6,64.9,29.88,NW,314,5.3,238.7,72,5.64,,,0.94,VWS V14.01,2013-06-03 15:46:00,
2013-06-03 11:51:00,74.3,65.0,29.88,NW,322,0.0,238.7,73,5.64,,,0.94,VWS V14.01,2013-06-03 15:51:00,
2013-06-03 11:57:00,74.6,65.8,29.88,NW,322,0.0,238.7,74,5.64,,,0.94,VWS V14.01,2013-06-03 15:57:00,
2013-06-03 12:02:00,74.8,64.5,29.88,North,359,0.0,238.7,70,5.64,,,0.94,VWS V14.01,2013-06-03 16:02:00,
2013-06-03 12:07:00,74.9,65.4,29.88,North,359,0.0,238.7,72,5.64,,,0.94,VWS V14.01,2013-06-03 16:07:00,
2013-06-03 12:12:00,75.1,64.8,29.88,North,359,0.0,238.7,70,5.64,,,0.94,VWS V14.01,2013-06-03 16:12:00,
2013-06-03 12:17:00,75.2,64.4,29.88,North,359,0.0,238.7,69,5.64,,,0.94,VWS V14.01,2013-06-03 16:17:00,
2013-06-03 12:23:00,75.1,64.7,29.89,North,359,0.0,238.7,70,5.64,,,0.94,VWS V14.01,2013-06-03 16:23:00,
2013-06-03 12:28:00,75.2,66.0,29.89,North,359,0.0,238.7,73,5.64,,,0.94,VWS V14.01,2013-06-03 16:28:00,
2013-06-03 12:34:00,75.8,66.7,29.88,North,359,0.0,238.7,73,5.64,,,0.94,VWS V14.01,2013-06-03 16:34:00,
2013-06-03 12:39:00,76.7,66.7,29.88,North,359,0.0,238.7,71,5.64,,,0.94,VWS V14.01,2013-06-03 16:39:00,
2013-06-03 12:44:00,77.7,65.6,29.87,North,359,0.0,238.7,66,5.64,,,0.94,VWS V14.01,2013-06-03 16:44:00,
2013-06-03 12:49:00,77.2,65.7,29.88,North,359,0.0,238.7,68,5.64,,,0.94,VWS V14.01,2013-06-03 16:49:00,
2013-06-03 12:54:00,77.0,65.7,29.87,North,359,0.0,238.7,68,5.64,,,0.94,VWS V14.01,2013-06-03 16:54:00,
2013-06-03 13:00:00,77.8,65.7,29.87,North,359,0.0,238.7,66,5.64,,,0.94,VWS V14.01,2013-06-03 17:00:00,
2013-06-03 13:05:00,77.2,64.3,29.87,North,359,0.0,238.7,64,5.64,,,0.94,VWS V14.01,2013-06-03 17:05:00,
2013-06-03 13:10:00,76.4,63.5,29.87,North,359,0.0,238.7,64,5.64,,,0.94,VWS V14.01,2013-06-03 17:10:00,
2013-06-03 13:16:00,76.4,64.9,29.87,North,359,0.0,238.7,68,5.64,,,0.94,VWS V14.01,2013-06-03 17:16:00,
2013-06-03 13:21:00,77.2,65.9,29.87,North,359,2.4,238.7,68,5.64,,,0.94,VWS V14.01,2013-06-03 17:21:00,
2013-06-03 13:26:00,78.1,65.2,29.86,NW,315,0.0,238.7,65,5.64,,,0.94,VWS V14.01,2013-06-03 17:26:00,
2013-06-03 13:31:00,78.9,63.4,29.86,WSW,253,1.2,238.7,59,5.64,,,0.94,VWS V14.01,2013-06-03 17:31:00,
2013-06-03 13:37:00,79.8,63.9,29.86,WSW,253,0.0,238.7,58,5.64,,,0.94,VWS V14.01,2013-06-03 17:37:00,
2013-06-03 13:42:00,80.9,63.8,29.86,WSW,253,0.0,238.7,56,5.64,,,0.94,VWS V14.01,2013-06-03 17:42:00,
2013-06-03 13:47:00,81.6,63.4,29.86,WSW,253,0.0,238.7,54,5.64,,,0.94,VWS V14.01,2013-06-03 17:47:00,
2013-06-03 13:52:00,82.0,63.7,29.85,WSW,253,0.0,238.7,54,5.64,,,0.94,VWS V14.01,2013-06-03 17:52:00,
2013-06-03 13:58:00,81.4,63.8,29.85,WSW,253,0.0,238.7,55,5.64,,,0.94,VWS V14.01,2013-06-03 17:58:00,
2013-06-03 14:03:00,80.6,63.4,29.85,WSW,253,0.0,238.7,56,5.64,,,0.94,VWS V14.01,2013-06-03 18:03:00,
2013-06-03 14:08:00,80.3,63.4,29.85,NW,308,0.0,238.7,56,5.64,,,0.94,VWS V14.01,2013-06-03 18:08:00,
2013-06-03 14:14:00,79.9,63.9,29.85,NW,308,0.0,238.7,58,5.64,,,0.94,VWS V14.01,2013-06-03 18:14:00,
2013-06-03 14:19:00,79.1,63.0,29.85,NNW,340,2.4,238.7,58,5.64,,,0.94,VWS V14.01,2013-06-03 18:19:00,
2013-06-03 14:24:00,79.3,64.9,29.85,NNE,32,0.0,238.7,61,5.64,,,0.94,VWS V14.01,2013-06-03 18:24:00,
2013-06-03 14:29:00,80.4,64.8,29.85,NNE,32,0.0,238.7,59,5.64,,,0.94,VWS V14.01,2013-06-03 18:29:00,
2013-06-03 14:35:00,81.8,64.2,29.86,NNE,32,0.0,238.7,55,5.64,,,0.94,VWS V14.01,2013-06-03 18:35:00,
2013-06-03 14:40:00,82.3,63.3,29.86,WNW,292,0.0,238.7,53,5.64,,,0.94,VWS V14.01,2013-06-03 18:40:00,
2013-06-03 14:45:00,82.0,63.2,29.86,WNW,292,0.0,238.7,53,5.64,,,0.94,VWS V14.01,2013-06-03 18:45:00,
2013-06-03 14:50:00,81.2,64.1,29.86,WNW,292,0.0,238.7,56,5.64,,,0.94,VWS V14.01,2013-06-03 18:50:00,
2013-06-03 14:56:00,80.3,64.5,29.86,WNW,292,0.0,238.7,59,5.64,,,0.94,VWS V14.01,2013-06-03 18:56:00,
2013-06-03 15:01:00,80.1,64.8,29.86,WNW,292,0.0,238.7,60,5.64,,,0.94,VWS V14.01,2013-06-03 19:01:00,
2013-06-03 15:06:00,80.1,64.6,29.86,WNW,292,0.0,238.7,59,5.64,,,0.94,VWS V14.01,2013-06-03 19:06:00,
2013-06-03 15:11:00,80.3,65.1,29.86,WNW,292,0.0,238.7,60,5.64,,,0.94,VWS V14.01,2013-06-03 19:11:00,
2013-06-03 15:16:00,81.3,64.9,29.86,WNW,292,0.0,238.7,58,5.64,,,0.94,VWS V14.01,2013-06-03 19:16:00,
2013-06-03 15:22:00,81.8,63.4,29.86,WNW,292,0.0,238.7,54,5.64,,,0.94,VWS V14.01,2013-06-03 19:22:00,
2013-06-03 15:27:00,81.3,63.9,29.86,WNW,292,0.0,238.7,56,5.64,,,0.94,VWS V14.01,2013-06-03 19:27:00,
2013-06-03 15:32:00,81.2,64.0,29.86,WNW,292,0.0,238.7,56,5.64,,,0.94,VWS V14.01,2013-06-03 19:32:00,
2013-06-03 15:37:00,81.1,64.1,29.86,West,280,0.0,238.7,56,5.64,,,0.94,VWS V14.01,2013-06-03 19:37:00,
2013-06-03 15:43:00,81.3,64.2,29.85,West,280,0.0,238.7,56,5.64,,,0.94,VWS V14.01,2013-06-03 19:43:00,
2013-06-03 15:48:00,80.5,64.1,29.85,West,280,0.0,238.7,57,5.64,,,0.94,VWS V14.01,2013-06-03 19:48:00,
2013-06-03 15:53:00,79.8,64.3,29.86,West,280,0.0,238.7,59,5.64,,,0.94,VWS V14.01,2013-06-03 19:53:00,
2013-06-03 15:58:00,79.3,64.4,29.85,West,280,0.0,238.7,60,5.64,,,0.94,VWS V14.01,2013-06-03 19:58:00,
2013-06-03 16:04:00,79.4,64.9,29.85,West,280,0.0,238.7,61,5.64,,,0.94,VWS V14.01,2013-06-03 20:04:00,
2013-06-03 16:09:00,79.3,64.7,29.85,West,280,0.0,238.7,61,5.64,,,0.94,VWS V14.01,2013-06-03 20:09:00,
2013-06-03 16:14:00,79.1,65.2,29.86,WNW,291,0.0,238.7,63,5.64,,,0.94,VWS V14.01,2013-06-03 20:14:00,
2013-06-03 16:19:00,78.4,64.0,29.86,WSW,250,0.0,238.7,61,5.64,,,0.94,VWS V14.01,2013-06-03 20:19:00,
2013-06-03 16:24:00,78.2,63.8,29.85,WSW,250,0.0,238.7,61,5.64,,,0.94,VWS V14.01,2013-06-03 20:24:00,
2013-06-03 16:30:00,78.0,64.0,29.85,WSW,250,0.0,238.7,62,5.64,,,0.94,VWS V14.01,2013-06-03 20:30:00,
2013-06-03 16:35:00,78.1,64.7,29.85,WSW,250,0.0,238.7,63,5.64,,,0.94,VWS V14.01,2013-06-03 20:35:00,
2013-06-03 16:40:00,78.0,64.8,29.85,WSW,250,0.0,238.7,64,5.64,,,0.94,VWS V14.01,2013-06-03 20:40:00,
2013-06-03 16:45:00,78.4,65.3,29.85,WSW,250,0.0,238.7,64,5.64,,,0.94,VWS V14.01,2013-06-03 20:45:00,
2013-06-03 16:51:00,78.7,65.6,29.85,WSW,250,0.0,238.7,64,5.64,,,0.94,VWS V14.01,2013-06-03 20:51:00,
2013-06-03 16:56:00,78.8,64.6,29.85,NNW,345,2.9,238.7,62,5.64,,,0.94,VWS V14.01,2013-06-03 20:56:00,
2013-06-03 17:01:00,78.1,64.1,29.85,NNW,345,0.0,238.7,62,5.64,,,0.94,VWS V14.01,2013-06-03 21:01:00,
2013-06-03 17:06:00,77.9,64.9,29.85,NNE,32,0.0,238.7,64,5.64,,,0.94,VWS V14.01,2013-06-03 21:06:00,
2013-06-03 17:12:00,78.0,66.1,29.85,NNE,32,0.0,238.7,67,5.64,,,0.94,VWS V14.01,2013-06-03 21:12:00,
2013-06-03 17:17:00,79.4,66.8,29.85,NNE,32,0.0,238.7,65,5.64,,,0.94,VWS V14.01,2013-06-03 21:17:00,
2013-06-03 17:22:00,80.1,65.6,29.85,NNE,32,0.0,238.7,61,5.64,,,0.94,VWS V14.01,2013-06-03 21:22:00,
2013-06-03 17:27:00,80.1,65.2,29.85,NNE,32,0.0,238.7,60,5.64,,,0.94,VWS V14.01,2013-06-03 21:27:00,
2013-06-03 17:32:00,80.0,64.8,29.85,NNE,32,0.0,238.7,60,5.64,,,0.94,VWS V14.01,2013-06-03 21:32:00,
2013-06-03 17:38:00,78.5,64.1,29.85,NNE,32,0.0,238.7,61,5.64,,,0.94,VWS V14.01,2013-06-03 21:38:00,
2013-06-03 17:43:00,78.4,66.6,29.84,NNE,32,0.0,238.7,67,5.64,,,0.94,VWS V14.01,2013-06-03 21:43:00,
2013-06-03 17:48:00,79.0,64.9,29.84,North,359,0.0,238.7,62,5.64,,,0.94,VWS V14.01,2013-06-03 21:48:00,
2013-06-03 17:53:00,78.9,63.6,29.84,West,277,0.0,238.7,60,5.64,,,0.94,VWS V14.01,2013-06-03 21:53:00,
2013-06-03 17:58:00,78.1,61.1,29.84,West,269,0.0,238.7,56,5.64,,,0.94,VWS V14.01,2013-06-03 21:58:00,
2013-06-03 18:04:00,77.7,61.3,29.84,West,269,0.0,238.7,57,5.64,,,0.94,VWS V14.01,2013-06-03 22:04:00,
2013-06-03 18:09:00,77.5,61.7,29.84,West,269,0.0,238.7,58,5.64,,,0.94,VWS V14.01,2013-06-03 22:09:00,
2013-06-03 18:14:00,77.1,60.9,29.84,West,269,0.0,238.7,57,5.64,,,0.94,VWS V14.01,2013-06-03 22:14:00,
2013-06-03 18:19:00,76.8,62.4,29.84,North,359,0.0,238.7,61,5.64,,,0.94,VWS V14.01,2013-06-03 22:19:00,
2013-06-03 18:24:00,76.1,62.2,29.84,NNE,20,0.0,238.7,62,5.64,,,0.94,VWS V14.01,2013-06-03 22:24:00,
2013-06-03 18:30:00,75.8,62.6,29.84,NW,318,0.0,238.7,64,5.64,,,0.94,VWS V14.01,2013-06-03 22:30:00,
2013-06-03 18:35:00,75.9,63.3,29.84,NW,318,0.0,238.7,65,5.64,,,0.94,VWS V14.01,2013-06-03 22:35:00,
2013-06-03 18:40:00,75.8,62.8,29.84,WNW,283,0.0,238.7,64,5.64,,,0.94,VWS V14.01,2013-06-03 22:40:00,
2013-06-03 18:46:00,75.8,63.8,29.85,WNW,283,0.0,238.7,66,5.64,,,0.94,VWS V14.01,2013-06-03 22:46:00,
2013-06-03 18:51:00,76.0,64.2,29.85,WNW,283,0.0,238.7,67,5.64,,,0.94,VWS V14.01,2013-06-03 22:51:00,
2013-06-03 18:56:00,76.3,63.9,29.85,WNW,283,0.0,238.7,65,5.64,,,0.94,VWS V14.01,2013-06-03 22:56:00,
2013-06-03 19:01:00,76.4,63.1,29.85,WNW,283,0.0,238.7,64,5.64,,,0.94,VWS V14.01,2013-06-03 23:01:00,
2013-06-03 19:06:00,76.1,62.8,29.85,WNW,283,0.0,238.7,63,5.64,,,0.94,VWS V14.01,2013-06-03 23:06:00,
2013-06-03 19:12:00,75.3,60.0,29.86,WNW,283,0.0,238.7,59,5.64,,,0.94,VWS V14.01,2013-06-03 23:12:00,
2013-06-03 19:17:00,74.6,60.0,29.86,WNW,283,0.0,238.7,60,5.64,,,0.94,VWS V14.01,2013-06-03 23:17:00,
2013-06-03 19:22:00,74.0,59.2,29.86,West,270,0.0,238.7,60,5.64,,,0.94,VWS V14.01,2013-06-03 23:22:00,
2013-06-03 19:27:00,73.7,58.4,29.87,NW,326,3.0,238.7,59,5.64,,,0.94,VWS V14.01,2013-06-03 23:27:00,
2013-06-03 19:33:00,73.6,58.9,29.87,NNW,336,2.6,238.7,60,5.64,,,0.94,VWS V14.01,2013-06-03 23:33:00,
2013-06-03 19:38:00,73.4,58.7,29.87,NNW,336,0.0,238.7,60,5.64,,,0.94,VWS V14.01,2013-06-03 23:38:00,
2013-06-03 19:43:00,73.3,58.5,29.87,NNW,336,0.0,238.7,60,5.64,,,0.94,VWS V14.01,2013-06-03 23:43:00,
2013-06-03 19:49:00,73.0,58.7,29.87,NNW,336,0.0,238.7,61,5.64,,,0.94,VWS V14.01,2013-06-03 23:49:00,
2013-06-03 19:54:00,72.6,58.3,29.87,NNW,336,0.0,238.7,61,5.64,,,0.94,VWS V14.01,2013-06-03 23:54:00,
2013-06-03 20:00:00,72.1,57.7,29.87,WNW,295,0.0,238.7,60,5.64,,,0.94,VWS V14.01,2013-06-04 00:00:00,
2013-06-03 20:07:00,71.7,57.2,29.87,WNW,295,0.0,238.7,60,5.64,,,0.94,VWS V14.01,2013-06-04 00:07:00,
2013-06-03 20:12:00,71.4,57.2,29.87,WNW,295,0.0,238.7,61,5.64,,,0.94,VWS V14.01,2013-06-04 00:12:00,
2013-06-03 20:18:00,70.9,56.5,29.87,WNW,295,0.0,238.7,60,5.64,,,0.94,VWS V14.01,2013-06-04 00:18:00,
2013-06-03 20:23:00,70.5,56.5,29.87,WNW,295,0.0,238.7,61,5.64,,,0.94,VWS V14.01,2013-06-04 00:23:00,
2013-06-03 20:29:00,70.2,56.4,29.87,WNW,295,0.0,238.7,62,5.64,,,0.94,VWS V14.01,2013-06-04 00:29:00,
2013-06-03 20:34:00,69.8,56.0,29.87,WNW,295,0.0,238.7,62,5.64,,,0.94,VWS V14.01,2013-06-04 00:34:00,
2013-06-03 20:40:00,69.6,55.6,29.87,WNW,295,0.0,238.7,61,5.64,,,0.94,VWS V14.01,2013-06-04 00:40:00,
2013-06-03 20:45:00,69.5,55.8,29.87,WNW,295,0.0,238.7,62,5.64,,,0.94,VWS V14.01,2013-06-04 00:45:00,
2013-06-03 20:52:00,69.5,56.0,29.87,WNW,295,0.0,238.7,62,5.64,,,0.94,VWS V14.01,2013-06-04 00:52:00,
2013-06-03 20:57:00,69.4,55.4,29.88,WNW,295,0.0,238.7,61,5.64,,,0.94,VWS V14.01,2013-06-04 00:57:00,
2013-06-03 21:02:00,69.2,54.9,29.88,WNW,295,1.7,238.7,60,5.64,,,0.94,VWS V14.01,2013-06-04 01:02:00,
2013-06-03 21:08:00,69.1,54.5,29.88,WNW,295,0.0,238.7,60,5.64,,,0.94,VWS V14.01,2013-06-04 01:08:00,
2013-06-03 21:13:00,69.1,54.3,29.89,WNW,295,0.0,238.7,59,5.64,,,0.94,VWS V14.01,2013-06-04 01:13:00,
2013-06-03 21:18:00,68.9,54.0,29.89,NNW,333,0.0,238.7,59,5.64,,,0.94,VWS V14.01,2013-06-04 01:18:00,
2013-06-03 21:23:00,68.7,53.9,29.89,North,359,0.0,238.7,59,5.64,,,0.94,VWS V14.01,2013-06-04 01:23:00,
2013-06-03 21:29:00,68.6,53.2,29.89,NW,309,1.8,238.7,58,5.64,,,0.94,VWS V14.01,2013-06-04 01:29:00,
2013-06-03 21:34:00,68.5,53.4,29.89,WNW,294,0.0,238.7,59,5.64,,,0.94,VWS V14.01,2013-06-04 01:34:00,
2013-06-03 21:39:00,68.3,52.2,29.90,NW,321,0.0,238.7,56,5.64,,,0.94,VWS V14.01,2013-06-04 01:39:00,
2013-06-03 21:44:00,68.2,52.2,29.90,WNW,288,0.0,238.7,57,5.64,,,0.94,VWS V14.01,2013-06-04 01:44:00,
2013-06-03 21:50:00,68.1,53.0,29.90,NNW,329,4.3,238.7,58,5.64,,,0.94,VWS V14.01,2013-06-04 01:50:00,
2013-06-03 21:55:00,68.1,53.6,29.90,NW,323,0.0,238.7,60,5.64,,,0.94,VWS V14.01,2013-06-04 01:55:00,
2013-06-03 22:00:00,68.0,54.2,29.91,NNW,343,4.3,238.7,61,5.64,,,0.94,VWS V14.01,2013-06-04 02:00:00,
2013-06-03 22:05:00,67.9,55.1,29.90,NW,305,4.8,238.7,64,5.64,,,0.94,VWS V14.01,2013-06-04 02:05:00,
2013-06-03 22:11:00,67.6,55.1,29.91,West,262,0.0,238.7,64,5.64,,,0.94,VWS V14.01,2013-06-04 02:11:00,
2013-06-03 22:16:00,67.3,54.5,29.91,North,359,0.0,238.7,63,5.64,,,0.94,VWS V14.01,2013-06-04 02:16:00,
2013-06-03 22:22:00,66.9,54.7,29.90,NNW,345,3.5,238.7,65,5.64,,,0.94,VWS V14.01,2013-06-04 02:22:00,
2013-06-03 22:27:00,66.4,54.5,29.91,NNW,328,3.5,238.7,65,5.64,,,0.94,VWS V14.01,2013-06-04 02:27:00,
2013-06-03 22:33:00,66.1,54.4,29.91,NW,308,3.4,238.7,66,5.64,,,0.94,VWS V14.01,2013-06-04 02:33:00,
2013-06-03 22:38:00,65.8,54.4,29.91,NNE,14,2.5,238.7,67,5.64,,,0.94,VWS V14.01,2013-06-04 02:38:00,
2013-06-03 22:43:00,65.5,53.9,29.91,North,359,4.4,238.7,66,5.64,,,0.94,VWS V14.01,2013-06-04 02:43:00,
2013-06-03 22:48:00,65.2,53.2,29.90,North,359,2.5,238.7,65,5.64,,,0.94,VWS V14.01,2013-06-04 02:48:00,
2013-06-03 22:53:00,64.9,53.5,29.91,North,6,4.2,238.7,66,5.64,,,0.94,VWS V14.01,2013-06-04 02:53:00,
2013-06-03 22:59:00,64.7,53.6,29.92,WNW,300,0.0,238.7,67,5.64,,,0.94,VWS V14.01,2013-06-04 02:59:00,
2013-06-03 23:04:00,64.4,53.7,29.92,NW,318,5.0,238.7,68,5.64,,,0.94,VWS V14.01,2013-06-04 03:04:00,
2013-06-03 23:09:00,64.2,54.0,29.92,NW,319,0.0,238.7,70,5.64,,,0.94,VWS V14.01,2013-06-04 03:09:00,
2013-06-03 23:14:00,63.7,53.0,29.92,NNW,345,2.1,238.7,68,5.64,,,0.94,VWS V14.01,2013-06-04 03:14:00,
2013-06-03 23:19:00,63.4,52.5,29.92,North,353,5.0,238.7,68,5.64,,,0.94,VWS V14.01,2013-06-04 03:19:00,
2013-06-03 23:25:00,63.2,52.7,29.92,NW,312,0.0,238.7,69,5.64,,,0.94,VWS V14.01,2013-06-04 03:25:00,
2013-06-03 23:30:00,63.0,52.7,29.92,NW,309,0.0,238.7,69,5.64,,,0.94,VWS V14.01,2013-06-04 03:30:00,
2013-06-03 23:35:00,62.8,52.8,29.92,NW,309,0.0,238.7,70,5.64,,,0.94,VWS V14.01,2013-06-04 03:35:00,
2013-06-03 23:40:00,62.6,52.8,29.93,North,6,0.0,238.7,70,5.64,,,0.94,VWS V14.01,2013-06-04 03:40:00,
2013-06-03 23:46:00,62.4,53.0,29.92,North,6,0.0,238.7,71,5.64,,,0.94,VWS V14.01,2013-06-04 03:46:00,
2013-06-03 23:51:00,62.2,52.7,29.93,North,6,0.0,238.7,71,5.64,,,0.94,VWS V14.01,2013-06-04 03:51:00,
2013-06-03 23:57:00,61.9,52.3,29.93,North,6,0.0,238.7,71,5.64,,,0.94,VWS V14.01,2013-06-04 03:57:00,